Time;durP1;ratioP1;P1;durP2;ratioP2;P2;SDS_P1;SDS_P2;PMS_P1;PMS_P2;Temp;Humidity;BMP_temperature;BMP_pressure;BME280_temperature;BME280_humidity;BME280_pressure;Samples;Min_cycle;Max_cycle;Signal;HPM_P1;HPM_P2
2022/08/18 00:04:45;;;;;;;7.97;7.28;;;25.00;62.90;;;;;;10531817;28;20430;-50
2022/08/18 00:09:46;;;;;;;8.48;7.72;;;25.00;62.90;;;;;;10512891;28;20028;-48
2022/08/18 00:14:48;;;;;;;8.15;7.45;;;25.00;62.90;;;;;;10531615;28;20487;-49
2022/08/18 00:19:49;;;;;;;7.80;7.20;;;25.00;63.00;;;;;;10513698;28;20519;-52
2022/08/18 00:24:54;;;;;;;8.10;7.40;;;25.00;62.90;;;;;;10531009;28;20024;-52
2022/08/18 00:30:04;;;;;;;8.50;7.63;;;25.00;62.90;;;;;;10482867;28;20041;-52
2022/08/18 00:35:24;;;;;;;8.77;7.97;;;25.00;62.90;;;;;;10515715;28;20457;-51
2022/08/18 00:40:31;;;;;;;7.43;6.82;;;25.00;62.90;;;;;;10530548;28;20464;-52
2022/08/18 00:45:39;;;;;;;8.15;7.45;;;25.00;62.90;;;;;;10512757;28;20035;-52
2022/08/18 00:50:52;;;;;;;8.32;7.63;;;25.00;62.80;;;;;;10513131;28;20053;-50
2022/08/18 00:55:56;;;;;;;7.85;7.15;;;25.00;62.90;;;;;;10513177;28;20421;-52
2022/08/18 01:01:01;;;;;;;7.85;7.20;;;25.00;62.90;;;;;;10530056;28;20063;-49
2022/08/18 01:06:10;;;;;;;8.60;7.82;;;25.00;62.90;;;;;;10512190;28;20058;-52
2022/08/18 01:11:11;;;;;;;7.40;6.80;;;24.90;62.90;;;;;;10512404;28;20099;-50
2022/08/18 01:21:52;;;;;;;8.68;7.97;;;25.00;62.90;;;;;;10514262;28;20028;-47
2022/08/18 01:26:53;;;;;;;7.55;6.95;;;25.00;62.90;;;;;;10508611;28;20369;-51
2022/08/18 01:31:54;;;;;;;8.00;7.30;;;24.90;62.90;;;;;;10453651;28;20031;-50
2022/08/18 01:36:56;;;;;;;8.13;7.43;;;24.90;63.00;;;;;;10528881;28;20032;-51
2022/08/18 01:41:56;;;;;;;7.75;7.03;;;24.90;62.80;;;;;;10510938;28;20040;-51
2022/08/18 01:46:57;;;;;;;7.15;6.55;;;25.00;62.90;;;;;;10536898;28;20685;-52
2022/08/18 01:51:58;;;;;;;8.32;6.95;;;24.90;62.80;;;;;;10536648;28;20031;-50
2022/08/18 01:56:59;;;;;;;8.60;7.82;;;24.90;62.80;;;;;;10536922;28;20020;-49
2022/08/18 02:02:00;;;;;;;7.57;6.90;;;24.90;62.80;;;;;;10536593;28;20050;-52
2022/08/18 02:07:03;;;;;;;7.20;6.50;;;24.90;62.80;;;;;;10519020;28;20038;-51
2022/08/18 02:12:06;;;;;;;7.03;6.43;;;24.90;62.80;;;;;;10537621;28;20022;-49
2022/08/18 02:17:09;;;;;;;7.15;6.55;;;24.90;62.90;;;;;;10536555;28;20062;-49
2022/08/18 02:22:18;;;;;;;6.38;5.88;;;24.90;62.90;;;;;;10536549;28;20024;-48
2022/08/18 02:27:19;;;;;;;7.20;6.60;;;24.90;62.90;;;;;;10527757;28;20024;-49
2022/08/18 02:32:19;;;;;;;7.60;6.90;;;24.90;62.80;;;;;;10463734;28;20024;-49
2022/08/18 02:37:21;;;;;;;6.70;6.10;;;24.90;62.80;;;;;;10516928;28;20082;-49
2022/08/18 02:42:22;;;;;;;7.15;6.45;;;24.90;62.80;;;;;;10534800;28;20111;-48
2022/08/18 02:47:23;;;;;;;6.55;6.05;;;24.90;62.90;;;;;;10535158;28;20031;-52
2022/08/18 02:52:33;;;;;;;7.30;6.60;;;24.80;62.90;;;;;;10534701;28;20462;-50
2022/08/18 02:57:34;;;;;;;6.68;6.07;;;24.90;62.80;;;;;;10533264;28;20031;-49
2022/08/18 03:02:35;;;;;;;7.07;6.40;;;24.90;62.80;;;;;;10533990;28;20027;-51
2022/08/18 03:07:35;;;;;;;7.75;7.05;;;24.80;62.80;;;;;;10533933;28;20016;-53
2022/08/18 03:12:36;;;;;;;6.70;6.10;;;24.80;62.80;;;;;;10534526;28;20055;-51
2022/08/18 03:17:38;;;;;;;6.07;5.47;;;24.80;62.90;;;;;;10533273;28;20039;-52
2022/08/18 03:22:38;;;;;;;7.35;6.72;;;24.80;62.80;;;;;;10515479;28;20039;-50
2022/08/18 03:27:39;;;;;;;5.70;5.20;;;24.80;62.70;;;;;;10503804;28;20028;-48
2022/08/18 03:32:40;;;;;;;6.00;5.45;;;24.80;62.70;;;;;;10480502;28;20119;-50
2022/08/18 03:37:41;;;;;;;6.47;5.97;;;24.80;62.70;;;;;;10532451;28;20039;-52
2022/08/18 03:42:41;;;;;;;6.05;5.35;;;24.80;62.80;;;;;;10532799;28;20040;-51
2022/08/18 03:47:44;;;;;;;6.40;5.90;;;24.80;62.80;;;;;;10514131;28;20535;-49
2022/08/18 03:52:48;;;;;;;6.25;5.75;;;24.80;62.70;;;;;;10532552;28;20020;-49
2022/08/18 03:57:51;;;;;;;6.43;5.82;;;24.80;62.70;;;;;;10532713;28;20110;-50
2022/08/18 04:02:52;;;;;;;5.97;5.47;;;24.80;62.70;;;;;;10514724;28;20055;-48
2022/08/18 04:07:53;;;;;;;6.15;5.55;;;24.80;62.80;;;;;;10531911;28;20475;-49
2022/08/18 04:12:53;;;;;;;5.50;5.00;;;24.80;62.80;;;;;;10531804;28;20032;-49
2022/08/18 04:17:59;;;;;;;5.88;5.38;;;24.80;62.80;;;;;;10530789;28;20065;-52
2022/08/18 04:23:00;;;;;;;6.35;5.75;;;24.80;62.80;;;;;;10531204;28;20062;-51
2022/08/18 04:28:02;;;;;;;6.15;5.57;;;24.80;62.80;;;;;;10517154;28;20017;-49
2022/08/18 04:33:05;;;;;;;7.22;6.53;;;24.80;62.80;;;;;;10498162;28;20036;-50
2022/08/18 04:38:06;;;;;;;5.75;5.05;;;24.80;62.90;;;;;;10511711;28;20030;-52
2022/08/18 04:43:14;;;;;;;7.55;5.85;;;24.80;62.80;;;;;;10532114;28;20028;-50
2022/08/18 04:48:15;;;;;;;5.75;5.25;;;24.80;62.80;;;;;;10532327;28;20108;-53
2022/08/18 04:58:35;;;;;;;6.05;5.45;;;24.70;62.80;;;;;;10531997;28;20546;-47
2022/08/18 05:03:37;;;;;;;6.45;5.72;;;24.80;62.80;;;;;;10532005;28;20032;-51
2022/08/18 05:08:38;;;;;;;5.90;5.40;;;24.70;62.80;;;;;;10497275;28;20039;-51
2022/08/18 05:13:38;;;;;;;5.50;5.00;;;24.70;62.80;;;;;;10513860;28;20035;-51
2022/08/18 05:18:39;;;;;;;5.75;5.25;;;24.70;62.80;;;;;;10499828;28;20111;-51
2022/08/18 05:23:47;;;;;;;5.85;5.35;;;24.70;62.80;;;;;;10521772;28;20024;-50
2022/08/18 05:28:47;;;;;;;5.88;5.38;;;24.70;62.80;;;;;;10519360;28;20085;-51
2022/08/18 05:33:49;;;;;;;6.25;5.65;;;24.70;62.80;;;;;;10514484;28;20491;-51
2022/08/18 05:39:14;;;;;;;6.40;5.90;;;24.70;62.80;;;;;;10538917;28;20352;-48
2022/08/18 05:44:30;;;;;;;5.45;4.95;;;24.70;62.90;;;;;;10522661;28;20491;-49
2022/08/18 05:49:34;;;;;;;4.78;4.25;;;24.70;62.90;;;;;;10538807;28;20032;-52
2022/08/18 06:00:10;;;;;;;5.95;5.45;;;24.70;62.90;;;;;;10523954;28;20642;-51
2022/08/18 06:05:30;;;;;;;5.70;5.20;;;24.70;62.80;;;;;;10538500;28;20502;-47
2022/08/18 06:10:31;;;;;;;5.20;4.80;;;24.70;62.90;;;;;;10520398;28;20074;-51
2022/08/18 06:15:50;;;;;;;5.40;4.90;;;24.70;62.90;;;;;;10503355;28;20101;-49
2022/08/18 06:21:08;;;;;;;4.78;4.38;;;24.70;62.90;;;;;;10538220;28;20032;-50
2022/08/18 06:26:55;;;;;;;4.95;4.55;;;24.70;62.90;;;;;;10521409;28;20020;-50
2022/08/18 06:32:44;;;;;;;5.60;5.10;;;24.70;62.90;;;;;;10480746;28;20025;-49
2022/08/18 06:43:34;;;;;;;5.22;4.72;;;24.60;62.80;;;;;;10537727;28;20055;-52
2022/08/18 06:48:58;;;;;;;5.55;5.03;;;24.60;62.80;;;;;;10518880;28;20483;-52
2022/08/18 06:54:23;;;;;;;5.85;5.35;;;24.60;62.80;;;;;;10518878;28;20028;-51
2022/08/18 06:59:31;;;;;;;5.18;4.68;;;24.70;62.80;;;;;;10504093;28;20021;-50
2022/08/18 07:04:43;;;;;;;5.18;4.72;;;24.60;63.50;;;;;;10536035;28;20111;-51
2022/08/18 07:09:44;;;;;;;5.72;5.22;;;24.60;63.10;;;;;;10535879;28;20555;-49
2022/08/18 07:14:50;;;;;;;5.43;4.93;;;24.60;62.70;;;;;;10535668;28;20070;-50
2022/08/18 07:20:23;;;;;;;5.25;4.75;;;24.60;62.80;;;;;;10535612;28;20054;-52
2022/08/18 07:25:43;;;;;;;5.00;4.50;;;24.60;62.90;;;;;;10527559;28;20473;-49
2022/08/18 07:30:44;;;;;;;5.00;4.57;;;24.60;62.80;;;;;;10480696;28;20087;-50
2022/08/18 07:35:53;;;;;;;5.00;4.43;;;24.60;62.90;;;;;;10491802;28;20028;-50
2022/08/18 07:41:16;;;;;;;5.75;5.18;;;24.60;63.00;;;;;;10533782;28;20092;-51
2022/08/18 07:46:41;;;;;;;4.93;4.43;;;24.60;63.10;;;;;;10517278;28;20060;-51
2022/08/18 07:51:52;;;;;;;5.25;4.75;;;24.60;63.10;;;;;;10533893;28;20131;-49
2022/08/18 07:57:20;;;;;;;4.47;4.07;;;24.60;63.10;;;;;;10516744;28;20478;-52
2022/08/18 08:02:47;;;;;;;7.38;4.90;;;24.60;63.60;;;;;;10533745;28;20089;-51
2022/08/18 08:08:28;;;;;;;5.07;4.57;;;24.70;63.70;;;;;;10533624;28;20539;-52
2022/08/18 08:13:56;;;;;;;5.32;4.82;;;24.70;63.70;;;;;;10463512;28;20498;-51
2022/08/18 08:19:14;;;;;;;6.30;5.10;;;24.70;63.70;;;;;;10532863;28;20050;-52
2022/08/18 08:24:45;;;;;;;5.18;4.60;;;24.70;63.60;;;;;;10533147;28;20046;-51
2022/08/18 08:30:06;;;;;;;4.65;4.25;;;24.70;63.70;;;;;;10487611;28;20140;-51
2022/08/18 08:35:12;;;;;;;4.47;4.07;;;24.70;63.70;;;;;;10518426;28;20119;-50
2022/08/18 08:40:26;;;;;;;4.97;4.55;;;24.70;63.70;;;;;;10531931;28;20040;-50
2022/08/18 08:45:41;;;;;;;4.53;4.13;;;24.70;63.70;;;;;;10514767;28;20039;-51
2022/08/18 08:50:53;;;;;;;4.57;4.18;;;24.80;63.70;;;;;;10531874;28;20032;-52
2022/08/18 08:56:00;;;;;;;4.68;4.28;;;24.70;63.60;;;;;;10513887;28;20024;-48
2022/08/18 09:01:01;;;;;;;5.38;4.88;;;24.70;63.70;;;;;;10514331;28;20032;-50
2022/08/18 09:06:41;;;;;;;4.90;4.40;;;24.70;63.70;;;;;;10496777;28;20036;-49
2022/08/18 09:12:06;;;;;;;4.80;4.20;;;24.80;63.80;;;;;;10531401;28;20038;-50
2022/08/18 09:17:44;;;;;;;5.30;4.80;;;24.80;63.70;;;;;;10531361;28;20036;-53
2022/08/18 09:23:16;;;;;;;4.57;4.18;;;24.80;63.60;;;;;;10499561;28;20455;-48
2022/08/18 09:28:28;;;;;;;4.82;4.10;;;24.80;63.60;;;;;;10500597;28;20032;-48
2022/08/18 09:33:44;;;;;;;4.75;4.35;;;24.80;63.60;;;;;;10503569;28;20024;-51
2022/08/18 09:44:44;;;;;;;5.28;4.05;;;24.80;63.70;;;;;;10516691;28;20035;-49
2022/08/18 09:49:52;;;;;;;4.45;4.05;;;24.80;63.60;;;;;;10531400;28;20047;-52
2022/08/18 09:54:58;;;;;;;4.53;3.95;;;24.80;63.50;;;;;;10513214;28;20407;-49
2022/08/18 10:00:03;;;;;;;4.93;3.72;;;24.80;63.50;;;;;;10531188;28;20040;-52
2022/08/18 10:05:18;;;;;;;5.80;3.92;;;24.80;63.50;;;;;;10535218;28;20430;-50
2022/08/18 10:10:42;;;;;;;5.20;4.13;;;24.80;63.50;;;;;;10538398;28;20032;-52
2022/08/18 10:15:49;;;;;;;4.63;4.22;;;24.80;63.40;;;;;;10500800;28;20033;-48
2022/08/18 10:21:54;;;;;;;5.43;4.00;;;24.80;63.40;;;;;;10496090;28;20123;-52
2022/08/18 10:26:54;;;;;;;4.20;3.80;;;24.80;63.40;;;;;;10432664;28;20086;-52
2022/08/18 10:31:55;;;;;;;5.15;3.92;;;24.80;63.40;;;;;;10536272;28;20558;-52
2022/08/18 10:37:30;;;;;;;3.97;3.47;;;24.80;63.40;;;;;;10495683;28;20419;-51
2022/08/18 10:42:39;;;;;;;4.70;4.25;;;24.90;63.40;;;;;;10479545;28;20037;-51
2022/08/18 10:47:41;;;;;;;4.40;4.00;;;24.90;63.40;;;;;;10477443;28;20041;-52
2022/08/18 10:53:08;;;;;;;4.22;3.83;;;24.80;63.40;;;;;;10494972;28;20135;-52
2022/08/18 10:58:20;;;;;;;5.25;4.05;;;24.80;63.40;;;;;;10477968;28;20671;-51
2022/08/18 11:03:48;;;;;;;4.07;3.67;;;24.80;63.50;;;;;;10476139;28;20063;-51
2022/08/18 11:08:57;;;;;;;4.22;3.83;;;24.90;63.50;;;;;;10494383;28;20033;-53
2022/08/18 11:14:10;;;;;;;4.05;3.50;;;24.90;63.40;;;;;;10494058;28;20039;-53
2022/08/18 11:19:15;;;;;;;4.15;3.72;;;25.00;63.30;;;;;;10492762;28;20103;-53
2022/08/18 11:24:26;;;;;;;4.00;3.60;;;25.00;63.00;;;;;;10475502;28;20625;-50
2022/08/18 11:29:39;;;;;;;3.75;3.40;;;25.00;63.10;;;;;;10502548;28;20036;-52
2022/08/18 11:34:48;;;;;;;4.18;3.78;;;25.00;63.20;;;;;;10493480;28;20103;-52
2022/08/18 11:39:51;;;;;;;;;;;24.90;63.30;;;;;;10493492;28;20499;-51
2022/08/18 11:45:17;;;;;;;3.88;3.53;;;24.90;63.20;;;;;;10475020;28;19916;-50
2022/08/18 11:50:29;;;;;;;4.25;3.80;;;24.90;63.30;;;;;;10475129;28;20422;-50
2022/08/18 11:55:34;;;;;;;4.13;3.72;;;24.90;63.30;;;;;;10474250;28;20028;-52
2022/08/18 12:00:47;;;;;;;4.53;4.13;;;24.90;63.30;;;;;;10492015;28;20388;-52
2022/08/18 12:05:56;;;;;;;4.25;3.85;;;24.90;63.30;;;;;;10491986;28;20044;-51
2022/08/18 12:11:19;;;;;;;;;;;24.90;63.30;;;;;;10474643;28;20025;-53
2022/08/18 12:16:38;;;;;;;4.20;3.80;;;24.80;63.20;;;;;;10457069;28;19913;-51
2022/08/18 12:21:53;;;;;;;3.88;3.47;;;24.90;63.30;;;;;;10491056;28;20028;-52
2022/08/18 12:26:57;;;;;;;4.40;3.80;;;24.80;63.30;;;;;;10496041;28;20032;-51
2022/08/18 12:31:58;;;;;;;4.05;3.65;;;24.80;63.30;;;;;;10531399;28;20437;-51
2022/08/18 12:37:00;;;;;;;3.80;3.35;;;24.80;63.40;;;;;;10490611;28;20081;-52
2022/08/18 12:42:01;;;;;;;3.88;3.50;;;24.80;63.40;;;;;;10490533;28;20044;-51
2022/08/18 12:47:11;;;;;;;4.15;3.75;;;24.80;63.30;;;;;;10490558;28;20024;-52
2022/08/18 12:52:12;;;;;;;4.40;4.00;;;24.90;63.40;;;;;;10490730;28;20033;-52
2022/08/18 12:57:23;;;;;;;5.15;4.10;;;24.80;63.30;;;;;;10490142;28;20028;-50
2022/08/18 13:02:24;;;;;;;5.40;4.45;;;24.80;63.30;;;;;;10490092;28;20032;-51
2022/08/18 13:07:25;;;;;;;4.07;3.67;;;24.80;63.40;;;;;;10489733;28;20029;-50
2022/08/18 13:12:25;;;;;;;4.43;4.03;;;24.80;63.30;;;;;;10489903;28;20037;-53
2022/08/18 13:17:26;;;;;;;4.30;3.90;;;24.80;63.30;;;;;;10489779;28;20024;-52
2022/08/18 13:22:28;;;;;;;4.05;3.65;;;24.80;63.30;;;;;;10489566;28;20116;-50
2022/08/18 13:27:29;;;;;;;5.65;4.30;;;24.80;63.30;;;;;;10481469;28;20544;-53
2022/08/18 13:32:29;;;;;;;4.45;4.05;;;24.80;63.30;;;;;;10525904;28;20031;-51
2022/08/18 13:37:30;;;;;;;4.10;3.72;;;24.80;63.30;;;;;;10471520;28;20119;-50
2022/08/18 13:42:47;;;;;;;4.78;4.03;;;24.80;63.30;;;;;;10496636;28;20497;-51
2022/08/18 13:47:48;;;;;;;4.30;3.90;;;24.80;63.30;;;;;;10479249;28;20025;-52
2022/08/18 13:52:49;;;;;;;4.30;3.90;;;24.90;63.30;;;;;;10497241;28;20047;-50
2022/08/18 13:57:50;;;;;;;4.38;3.95;;;24.90;63.40;;;;;;10478845;28;20031;-52
2022/08/18 14:02:54;;;;;;;4.13;3.72;;;24.80;63.30;;;;;;10496791;28;20028;-52
2022/08/18 14:07:54;;;;;;;4.20;3.80;;;24.80;63.30;;;;;;10479767;28;20059;-50
2022/08/18 14:12:59;;;;;;;4.45;3.90;;;24.90;63.90;;;;;;10496853;28;20117;-53
2022/08/18 14:18:00;;;;;;;5.72;4.90;;;24.80;63.30;;;;;;10478585;28;20024;-52
2022/08/18 14:28:22;;;;;;;4.00;3.60;;;24.90;63.30;;;;;;10512890;28;20059;-51
2022/08/18 14:33:27;;;;;;;4.78;3.80;;;24.80;63.30;;;;;;10524661;28;20126;-52
2022/08/18 14:38:27;;;;;;;3.72;3.42;;;24.90;63.30;;;;;;10495858;28;20495;-52
2022/08/18 14:43:28;;;;;;;4.32;3.92;;;24.90;63.30;;;;;;10477425;28;20028;-49
2022/08/18 14:48:29;;;;;;;6.30;4.40;;;24.90;63.30;;;;;;10495010;28;20028;-53
2022/08/18 14:53:35;;;;;;;4.55;4.13;;;24.90;63.20;;;;;;10493594;28;20064;-51
2022/08/18 14:58:36;;;;;;;5.18;4.50;;;24.90;63.10;;;;;;10494694;28;20032;-52
2022/08/18 15:03:39;;;;;;;4.68;4.20;;;24.90;63.20;;;;;;10494426;28;20032;-49
2022/08/18 15:08:39;;;;;;;4.30;3.67;;;24.90;63.20;;;;;;10476248;28;20032;-52
2022/08/18 15:13:42;;;;;;;3.65;3.35;;;24.90;63.30;;;;;;10494136;28;20395;-52
2022/08/18 15:18:45;;;;;;;4.25;3.85;;;24.90;63.20;;;;;;10475313;28;20025;-52
2022/08/18 15:29:06;;;;;;;4.40;4.00;;;24.90;63.30;;;;;;10501238;28;20040;-50
2022/08/18 15:34:07;;;;;;;4.35;3.67;;;24.90;63.30;;;;;;10515725;28;20043;-52
2022/08/18 15:39:08;;;;;;;4.55;4.15;;;24.90;63.30;;;;;;10493086;28;20135;-51
2022/08/18 15:44:10;;;;;;;4.07;3.65;;;24.90;63.30;;;;;;10492885;28;20462;-52
2022/08/18 15:49:10;;;;;;;4.43;4.03;;;24.90;63.30;;;;;;10492478;28;20048;-49
2022/08/18 15:54:11;;;;;;;3.72;3.42;;;24.90;63.30;;;;;;10492367;28;20482;-52
2022/08/18 15:59:12;;;;;;;4.05;3.65;;;24.90;63.30;;;;;;10491909;28;20036;-53
2022/08/18 16:04:14;;;;;;;3.78;3.47;;;24.90;63.30;;;;;;10473680;28;20024;-52
2022/08/18 16:09:15;;;;;;;4.68;4.07;;;24.90;63.30;;;;;;10491474;28;20399;-48
2022/08/18 16:14:16;;;;;;;4.18;3.78;;;24.80;63.20;;;;;;10491546;28;20471;-49
2022/08/18 16:19:16;;;;;;;4.00;3.60;;;24.80;63.20;;;;;;10491119;28;20024;-51
2022/08/18 16:24:17;;;;;;;4.28;3.88;;;24.90;63.30;;;;;;10491198;28;20037;-52
2022/08/18 16:29:18;;;;;;;4.65;3.85;;;24.90;63.20;;;;;;10515923;28;20038;-51
2022/08/18 16:34:19;;;;;;;4.30;3.90;;;24.90;63.20;;;;;;10511873;28;20043;-52
2022/08/18 16:39:19;;;;;;;4.13;3.58;;;24.90;63.20;;;;;;10490632;28;20052;-52
2022/08/18 16:44:20;;;;;;;4.28;3.88;;;24.90;63.20;;;;;;10472782;28;20028;-51
2022/08/18 16:49:21;;;;;;;4.13;3.75;;;24.90;63.20;;;;;;10472293;28;20095;-51
2022/08/18 16:54:21;;;;;;;5.00;4.30;;;24.90;63.20;;;;;;10490232;28;20032;-53
2022/08/18 17:04:41;;;;;;;4.28;3.88;;;24.90;63.40;;;;;;10489776;28;20033;-52
2022/08/18 17:09:42;;;;;;;3.67;3.38;;;24.90;63.30;;;;;;10489947;28;20032;-52
2022/08/18 17:14:43;;;;;;;3.88;3.45;;;24.90;63.20;;;;;;10488690;28;20032;-50
2022/08/18 17:19:45;;;;;;;4.22;3.83;;;24.90;63.20;;;;;;10489376;28;20104;-49
2022/08/18 17:24:46;;;;;;;4.05;3.65;;;24.90;63.20;;;;;;10471669;28;20029;-49
2022/08/18 17:29:55;;;;;;;4.72;4.32;;;24.90;63.20;;;;;;10500041;28;20406;-53
2022/08/18 17:35:33;;;;;;;4.25;3.85;;;24.90;63.20;;;;;;10505574;28;20036;-52
2022/08/18 17:40:48;;;;;;;3.88;3.50;;;24.90;63.10;;;;;;10472741;28;20071;-50
2022/08/18 17:46:15;;;;;;;4.35;3.75;;;24.90;63.20;;;;;;10471463;28;20060;-50
2022/08/18 17:51:33;;;;;;;3.88;3.55;;;24.90;63.10;;;;;;10455044;28;20159;-48
2022/08/18 17:56:48;;;;;;;3.58;3.20;;;24.90;63.10;;;;;;10456178;28;20507;-50
2022/08/18 18:02:22;;;;;;;3.85;3.55;;;24.90;63.10;;;;;;10471601;28;20058;-49
2022/08/18 18:07:36;;;;;;;4.20;3.80;;;24.90;63.00;;;;;;10489131;28;20024;-50
2022/08/18 18:12:38;;;;;;;3.60;3.30;;;24.90;63.10;;;;;;10471418;28;20032;-52
2022/08/18 18:17:41;;;;;;;3.42;3.13;;;24.90;63.10;;;;;;10488739;28;20068;-51
2022/08/18 18:22:44;;;;;;;3.63;3.33;;;24.90;63.10;;;;;;10488683;28;20368;-50
2022/08/18 18:27:45;;;;;;;4.82;3.75;;;24.90;63.00;;;;;;10488968;28;20039;-52
2022/08/18 18:33:12;;;;;;;3.50;3.20;;;24.90;63.00;;;;;;10529306;28;20020;-48
2022/08/18 18:38:24;;;;;;;3.67;3.38;;;24.90;63.00;;;;;;10478293;28;20049;-52
2022/08/18 18:43:27;;;;;;;3.17;2.83;;;24.90;62.90;;;;;;10495450;28;20057;-49
2022/08/18 18:48:44;;;;;;;3.88;3.40;;;24.90;63.00;;;;;;10477367;28;20032;-50
2022/08/18 18:54:00;;;;;;;3.60;3.30;;;24.90;62.90;;;;;;10477718;28;20020;-51
2022/08/18 18:59:45;;;;;;;4.57;3.63;;;24.90;62.90;;;;;;10477093;28;20035;-51
2022/08/18 19:04:56;;;;;;;3.60;3.30;;;24.90;62.90;;;;;;10494560;28;20040;-53
2022/08/18 19:10:08;;;;;;;3.45;3.15;;;24.90;62.80;;;;;;10494186;28;20639;-50
2022/08/18 19:15:14;;;;;;;4.03;3.63;;;24.90;62.90;;;;;;10476298;28;20033;-50
2022/08/18 19:20:39;;;;;;;4.50;3.70;;;24.90;62.90;;;;;;10476104;28;20455;-50
2022/08/18 19:25:53;;;;;;;3.63;3.17;;;24.90;62.80;;;;;;10494057;28;20028;-48
2022/08/18 19:30:57;;;;;;;3.90;3.13;;;24.90;62.80;;;;;;10531836;28;20031;-48
2022/08/18 19:36:38;;;;;;;3.70;3.35;;;24.90;62.70;;;;;;10480763;28;20028;-50
2022/08/18 19:41:55;;;;;;;3.67;3.38;;;24.90;62.80;;;;;;10473160;28;20052;-51
2022/08/18 19:47:39;;;;;;;4.05;3.65;;;24.90;62.70;;;;;;10490397;28;20053;-48
2022/08/18 19:53:03;;;;;;;3.50;3.20;;;24.90;62.70;;;;;;10476687;28;20082;-49
2022/08/18 19:58:34;;;;;;;3.45;3.15;;;24.90;62.60;;;;;;10491485;28;20529;-49
2022/08/18 20:03:34;;;;;;;2.95;2.67;;;25.00;62.70;;;;;;10471907;28;20484;-51
2022/08/18 20:09:23;;;;;;;3.28;2.97;;;24.90;62.70;;;;;;10489659;28;20036;-51
2022/08/18 20:14:24;;;;;;;4.95;3.00;;;25.00;62.70;;;;;;10459591;28;20048;-51
2022/08/18 20:19:59;;;;;;;3.13;2.83;;;25.00;62.70;;;;;;10471470;28;20395;-48
2022/08/18 20:25:16;;;;;;;3.58;3.28;;;25.00;62.70;;;;;;10489218;28;20040;-48
2022/08/18 20:30:52;;;;;;;3.50;3.20;;;24.90;62.60;;;;;;10504781;28;20032;-50
2022/08/18 20:36:18;;;;;;;3.42;3.13;;;24.90;62.60;;;;;;10496592;28;20029;-49
2022/08/18 20:41:22;;;;;;;3.33;3.03;;;24.90;62.60;;;;;;10446717;28;20049;-50
2022/08/18 20:46:45;;;;;;;3.55;2.95;;;24.90;62.60;;;;;;10447179;28;20055;-50
2022/08/18 20:52:12;;;;;;;3.42;3.13;;;24.90;62.60;;;;;;10446185;28;20025;-49
2022/08/18 20:57:13;;;;;;;3.60;3.30;;;24.90;62.60;;;;;;10445562;28;20348;-51
2022/08/18 21:02:37;;;;;;;4.90;3.38;;;24.90;62.60;;;;;;10447049;28;20480;-51
2022/08/18 21:08:04;;;;;;;3.78;3.38;;;24.90;62.60;;;;;;10445500;28;20045;-47
2022/08/18 21:13:07;;;;;;;3.80;3.42;;;24.90;62.60;;;;;;10446652;28;20036;-51
2022/08/18 21:18:20;;;;;;;3.47;3.08;;;24.90;62.70;;;;;;10446914;28;20041;-50
2022/08/18 21:23:30;;;;;;;3.53;3.22;;;24.90;62.60;;;;;;10446482;28;20119;-51
2022/08/18 21:28:34;;;;;;;3.35;3.05;;;24.90;62.50;;;;;;10462901;28;20376;-49
2022/08/18 21:33:34;;;;;;;3.35;2.95;;;24.90;62.60;;;;;;10471403;28;20032;-49
2022/08/18 21:38:36;;;;;;;3.45;3.08;;;24.90;62.60;;;;;;10452901;28;20407;-48
2022/08/18 21:43:47;;;;;;;2.80;2.60;;;24.90;63.20;;;;;;10487477;28;20028;-50
2022/08/18 21:48:52;;;;;;;3.00;2.70;;;24.90;62.50;;;;;;10469057;28;20029;-48
2022/08/18 21:53:53;;;;;;;2.78;2.55;;;24.90;62.50;;;;;;10486892;28;20123;-49
2022/08/18 21:59:17;;;;;;;3.53;2.60;;;24.90;62.50;;;;;;10453043;28;20442;-51
2022/08/18 22:04:35;;;;;;;3.40;3.10;;;24.90;62.60;;;;;;10494739;28;20029;-49
2022/08/18 22:15:25;;;;;;;3.65;3.28;;;24.90;62.60;;;;;;10494645;28;20028;-51
2022/08/18 22:20:47;;;;;;;3.40;3.10;;;24.90;62.50;;;;;;10493878;28;20032;-50
2022/08/18 22:25:48;;;;;;;3.67;3.38;;;24.80;62.50;;;;;;10476072;28;20037;-51
2022/08/18 22:30:49;;;;;;;4.30;2.72;;;24.80;63.10;;;;;;10513139;28;20020;-50
2022/08/18 22:35:56;;;;;;;3.35;3.05;;;24.80;62.60;;;;;;10501536;28;20484;-48
2022/08/18 22:40:59;;;;;;;3.35;3.05;;;24.80;62.50;;;;;;10475126;28;20411;-49
2022/08/18 22:46:00;;;;;;;3.35;3.05;;;24.80;62.50;;;;;;10475113;28;20031;-50
2022/08/18 22:51:02;;;;;;;3.20;2.90;;;24.80;62.50;;;;;;10492840;28;20040;-49
2022/08/18 22:56:03;;;;;;;3.65;3.13;;;24.80;62.40;;;;;;10493048;28;20036;-48
2022/08/18 23:01:04;;;;;;;4.13;3.33;;;24.80;62.50;;;;;;10492793;28;20071;-48
2022/08/18 23:06:07;;;;;;;3.38;2.97;;;24.80;62.40;;;;;;10474989;28;20084;-50
2022/08/18 23:11:08;;;;;;;3.58;3.28;;;24.80;62.40;;;;;;10490969;28;20033;-51
2022/08/18 23:16:08;;;;;;;3.08;2.70;;;24.80;62.40;;;;;;10492339;28;20028;-49
2022/08/18 23:21:09;;;;;;;3.80;3.25;;;24.80;62.40;;;;;;10491606;28;20035;-52
2022/08/18 23:26:10;;;;;;;3.25;2.95;;;24.80;62.30;;;;;;10491482;28;20043;-49
2022/08/18 23:31:12;;;;;;;3.55;2.95;;;24.80;62.30;;;;;;10496928;28;20055;-50
2022/08/18 23:36:13;;;;;;;3.33;3.03;;;24.80;62.20;;;;;;10478114;28;20380;-50
2022/08/18 23:41:15;;;;;;;3.30;2.83;;;24.80;62.30;;;;;;10490876;28;20511;-47
2022/08/18 23:46:23;;;;;;;7.53;3.10;;;24.80;62.20;;;;;;10472649;28;20295;-49
2022/08/18 23:51:38;;;;;;;3.42;3.05;;;24.70;62.20;;;;;;10491510;28;20040;-49
2022/08/18 23:56:39;;;;;;;3.33;3.03;;;24.80;62.20;;;;;;10490195;28;20016;-49
